Time;durP1;ratioP1;P1;durP2;ratioP2;P2;SDS_P1;SDS_P2;PMS_P1;PMS_P2;Temp;Humidity;BMP_temperature;BMP_pressure;BME280_temperature;BME280_humidity;BME280_pressure;Samples;Min_cycle;Max_cycle;Signal;HPM_P1;HPM_P2
2022/06/13 00:01:10;;;;;;;22.73;7.00;;;16.80;64.10;;;;;;2374524;56;21118;-76
2022/06/13 00:03:38;;;;;;;17.25;4.68;;;16.70;64.20;;;;;;2628307;52;21083;-76
2022/06/13 00:06:06;;;;;;;15.93;5.55;;;16.70;64.60;;;;;;2374856;56;21051;-77
2022/06/13 00:08:35;;;;;;;20.55;6.00;;;16.70;64.60;;;;;;2626450;52;21055;-77
2022/06/13 00:11:05;;;;;;;16.27;5.95;;;16.70;64.80;;;;;;2373637;56;21027;-77
2022/06/13 00:13:33;;;;;;;13.82;6.62;;;16.70;64.80;;;;;;2373593;56;21050;-76
2022/06/13 00:16:00;;;;;;;11.45;5.62;;;16.70;65.10;;;;;;2626630;52;21027;-76
2022/06/13 00:18:28;;;;;;;16.52;5.53;;;16.70;64.80;;;;;;2373793;56;21055;-73
2022/06/13 00:20:56;;;;;;;19.87;6.35;;;16.70;64.70;;;;;;2373229;56;21582;-75
2022/06/13 00:23:24;;;;;;;12.65;5.20;;;16.70;64.80;;;;;;2371292;56;21035;-76
2022/06/13 00:25:51;;;;;;;11.77;5.28;;;16.70;64.80;;;;;;2373393;56;21038;-76
2022/06/13 00:28:19;;;;;;;14.55;5.97;;;16.70;65.00;;;;;;2373335;56;21126;-76
2022/06/13 00:30:47;;;;;;;19.92;6.43;;;16.60;65.00;;;;;;2624605;52;21131;-73
2022/06/13 00:33:14;;;;;;;15.70;5.60;;;16.60;65.20;;;;;;2373319;56;21062;-76
2022/06/13 00:35:42;;;;;;;17.65;6.05;;;16.70;65.30;;;;;;2373531;56;21059;-76
2022/06/13 00:38:10;;;;;;;15.60;5.72;;;16.60;65.40;;;;;;2374187;56;21039;-74
2022/06/13 00:40:37;;;;;;;22.45;6.37;;;16.60;65.40;;;;;;2373424;56;21067;-75
2022/06/13 00:43:06;;;;;;;13.20;5.60;;;16.60;65.30;;;;;;2373599;56;21047;-76
2022/06/13 00:45:36;;;;;;;12.95;4.78;;;16.60;65.40;;;;;;2626267;52;21110;-73
2022/06/13 00:48:05;;;;;;;12.35;5.90;;;16.60;65.50;;;;;;2373824;56;21051;-76
2022/06/13 00:50:37;;;;;;;12.05;5.28;;;16.60;65.60;;;;;;2627235;52;21106;-75
2022/06/13 00:53:09;;;;;;;19.62;5.90;;;16.60;65.70;;;;;;2627485;52;21103;-76
2022/06/13 00:55:39;;;;;;;13.00;5.62;;;16.60;65.70;;;;;;2373970;56;21051;-76
2022/06/13 00:58:07;;;;;;;16.65;5.85;;;16.60;65.80;;;;;;2373182;56;21126;-75
2022/06/13 01:00:35;;;;;;;20.52;6.32;;;16.50;66.60;;;;;;2373744;56;21110;-73
2022/06/13 01:03:04;;;;;;;21.55;6.28;;;16.60;66.10;;;;;;2624905;52;21047;-76
2022/06/13 01:05:36;;;;;;;18.02;5.70;;;16.50;66.20;;;;;;2373636;56;21098;-76
2022/06/13 01:08:06;;;;;;;17.90;5.68;;;16.50;66.10;;;;;;2627162;52;21083;-74
2022/06/13 01:13:22;;;;;;;15.27;5.40;;;16.60;66.10;;;;;;2373608;56;21572;-76
2022/06/13 01:16:12;;;;;;;14.05;5.60;;;16.50;66.00;;;;;;2372284;56;21138;-76
2022/06/13 01:18:58;;;;;;;15.18;6.15;;;16.60;66.10;;;;;;2373116;56;21178;-76
2022/06/13 01:21:37;;;;;;;15.95;5.15;;;16.60;66.00;;;;;;2372754;56;21031;-76
2022/06/13 01:24:40;;;;;;;17.02;5.53;;;16.50;66.10;;;;;;2373790;56;21039;-76
2022/06/13 01:27:46;;;;;;;12.05;5.28;;;16.50;66.40;;;;;;2626619;52;21083;-77
2022/06/13 01:30:49;;;;;;;13.25;5.80;;;16.50;66.40;;;;;;2600657;52;21050;-77
2022/06/13 01:33:29;;;;;;;12.68;5.35;;;16.50;66.40;;;;;;2372288;56;21121;-77
2022/06/13 01:36:05;;;;;;;14.57;5.12;;;16.50;66.30;;;;;;2627009;52;21043;-77
2022/06/13 01:38:56;;;;;;;12.05;4.85;;;16.40;66.40;;;;;;2373641;56;21199;-77
2022/06/13 01:41:32;;;;;;;18.40;5.45;;;16.40;66.40;;;;;;2374367;56;21059;-77
2022/06/13 01:44:11;;;;;;;12.07;5.68;;;16.40;66.30;;;;;;2627223;52;21089;-77
2022/06/13 01:46:43;;;;;;;18.85;5.82;;;16.40;66.50;;;;;;2373485;56;21125;-77
2022/06/13 01:49:27;;;;;;;11.45;4.93;;;16.40;66.50;;;;;;2626236;52;21102;-76
2022/06/13 01:51:59;;;;;;;18.90;5.45;;;16.30;66.40;;;;;;2627649;52;21035;-76
2022/06/13 01:54:34;;;;;;;19.30;5.78;;;16.30;66.40;;;;;;2374184;56;21014;-76
2022/06/13 01:57:13;;;;;;;16.35;4.70;;;16.30;66.60;;;;;;2626562;52;21118;-74
2022/06/13 01:59:47;;;;;;;19.35;5.93;;;16.30;66.60;;;;;;2373590;56;21126;-74
2022/06/13 02:02:20;;;;;;;12.35;4.95;;;16.30;66.50;;;;;;2373927;56;21050;-74
2022/06/13 02:04:54;;;;;;;17.37;5.68;;;16.30;67.20;;;;;;2372658;56;21063;-76
2022/06/13 02:07:26;;;;;;;14.45;5.37;;;16.20;66.30;;;;;;2373252;56;21621;-75
2022/06/13 02:09:59;;;;;;;13.55;5.15;;;16.20;66.30;;;;;;2373678;56;21051;-76
2022/06/13 02:12:31;;;;;;;16.85;5.47;;;16.20;66.30;;;;;;2373483;56;21031;-77
2022/06/13 02:15:05;;;;;;;15.13;5.43;;;16.20;66.40;;;;;;2625665;52;21035;-77
2022/06/13 02:17:41;;;;;;;11.93;4.70;;;16.20;66.60;;;;;;2374215;56;21075;-77
2022/06/13 02:20:15;;;;;;;15.32;5.20;;;16.10;66.40;;;;;;2626556;52;21051;-76
2022/06/13 02:22:45;;;;;;;11.45;5.37;;;16.10;66.40;;;;;;2373716;56;21146;-76
2022/06/13 02:25:18;;;;;;;11.95;5.93;;;16.10;66.30;;;;;;2625847;52;21529;-74
2022/06/13 02:27:52;;;;;;;18.17;5.53;;;16.10;66.20;;;;;;2373901;56;21050;-74
2022/06/13 02:30:19;;;;;;;;;;;16.10;66.70;;;;;;2376004;56;21038;-77
2022/06/13 02:35:31;;;;;;;12.10;4.47;;;16.10;65.40;;;;;;2353978;57;22541;-76
2022/06/13 02:38:03;;;;;;;14.63;5.03;;;16.10;65.80;;;;;;2347446;56;21057;-73
2022/06/13 02:40:35;;;;;;;16.02;5.57;;;16.00;65.80;;;;;;2627690;52;21056;-76
2022/06/13 02:43:07;;;;;;;20.20;4.57;;;16.00;65.90;;;;;;2374853;56;21118;-73
2022/06/13 02:45:40;;;;;;;10.80;4.87;;;16.00;66.30;;;;;;2374691;56;21123;-74
2022/06/13 02:48:17;;;;;;;11.80;5.35;;;16.00;66.30;;;;;;2374750;56;21035;-75
2022/06/13 02:50:53;;;;;;;12.85;4.90;;;16.00;66.40;;;;;;2374504;56;21146;-74
2022/06/13 02:53:25;;;;;;;11.75;4.57;;;16.00;66.50;;;;;;2374458;56;21671;-76
2022/06/13 02:56:04;;;;;;;15.00;5.25;;;16.00;66.70;;;;;;2373451;56;21035;-76
2022/06/13 02:58:36;;;;;;;15.50;5.62;;;16.00;66.80;;;;;;2375016;56;21059;-73
2022/06/13 03:01:09;;;;;;;11.90;4.85;;;16.00;66.80;;;;;;2375295;56;21675;-75
2022/06/13 03:03:47;;;;;;;18.98;5.68;;;16.00;66.90;;;;;;2375201;56;21107;-76
2022/06/13 03:06:24;;;;;;;10.38;5.95;;;16.00;66.90;;;;;;2374403;56;21047;-74
2022/06/13 03:08:59;;;;;;;11.90;4.95;;;16.00;67.10;;;;;;2374469;56;21162;-76
2022/06/13 03:11:50;;;;;;;15.95;4.87;;;16.00;67.30;;;;;;2373412;56;21067;-73
2022/06/13 03:14:38;;;;;;;11.48;5.30;;;16.00;67.70;;;;;;2373671;56;21631;-75
2022/06/13 03:17:15;;;;;;;13.68;5.45;;;16.00;67.60;;;;;;2373059;56;21066;-76
2022/06/13 03:19:46;;;;;;;11.80;5.05;;;16.10;67.60;;;;;;2373540;56;21059;-72
2022/06/13 03:22:18;;;;;;;15.38;5.45;;;16.10;67.20;;;;;;2374082;56;21039;-73
2022/06/13 03:24:51;;;;;;;14.57;4.95;;;16.10;67.10;;;;;;2628846;52;21189;-73
2022/06/13 03:27:26;;;;;;;18.98;5.47;;;16.10;67.30;;;;;;2374032;56;21189;-76
2022/06/13 03:29:58;;;;;;;18.00;5.35;;;16.10;67.30;;;;;;2374661;56;21039;-72
2022/06/13 03:32:31;;;;;;;10.93;5.30;;;16.10;67.00;;;;;;2627168;52;21208;-72
2022/06/13 03:35:03;;;;;;;21.00;5.70;;;16.10;67.20;;;;;;2628737;52;21180;-75
2022/06/13 03:37:35;;;;;;;16.87;5.63;;;16.20;67.30;;;;;;2627890;52;21679;-75
2022/06/13 03:42:39;;;;;;;12.65;4.97;;;16.20;67.00;;;;;;2328179;58;21055;-83
2022/06/13 03:45:16;;;;;;;17.27;5.70;;;16.30;67.00;;;;;;2327965;58;21158;-84
2022/06/13 03:47:47;;;;;;;12.32;4.50;;;16.30;66.70;;;;;;2570290;54;21066;-84
2022/06/13 03:50:23;;;;;;;12.48;5.00;;;16.30;66.70;;;;;;2325125;58;21082;-84
2022/06/13 03:52:55;;;;;;;16.08;4.85;;;16.30;66.60;;;;;;2301357;58;21061;-84
2022/06/13 03:55:28;;;;;;;13.07;4.75;;;16.30;67.00;;;;;;2539363;54;21121;-84
2022/06/13 03:58:01;;;;;;;14.53;5.47;;;16.30;67.70;;;;;;2538730;54;21717;-80
2022/06/13 04:00:35;;;;;;;16.37;5.28;;;16.30;67.10;;;;;;2301488;58;21793;-83
2022/06/13 04:03:04;;;;;;;13.27;4.53;;;16.30;67.30;;;;;;2301250;58;21069;-83
2022/06/13 04:05:37;;;;;;;14.87;4.55;;;16.30;67.30;;;;;;2300575;58;21085;-83
2022/06/13 04:08:08;;;;;;;15.10;5.27;;;16.30;66.90;;;;;;2301972;58;21081;-80
2022/06/13 04:10:41;;;;;;;14.05;6.03;;;16.40;66.70;;;;;;2537094;54;21615;-82
2022/06/13 04:13:26;;;;;;;17.60;6.32;;;16.40;66.90;;;;;;2538411;54;21058;-81
2022/06/13 04:16:11;;;;;;;13.35;4.93;;;16.40;67.70;;;;;;2300983;58;21050;-82
2022/06/13 04:18:52;;;;;;;9.07;5.03;;;16.40;67.10;;;;;;2538645;54;21662;-83
2022/06/13 04:21:30;;;;;;;17.20;6.12;;;16.40;67.20;;;;;;2300670;58;21053;-80
2022/06/13 04:24:15;;;;;;;16.00;5.80;;;16.40;67.90;;;;;;2301188;58;21178;-82
2022/06/13 04:26:50;;;;;;;11.20;4.70;;;16.30;67.30;;;;;;2537998;54;21113;-82
2022/06/13 04:29:25;;;;;;;17.75;4.72;;;16.30;67.40;;;;;;2300521;58;21093;-82
2022/06/13 04:31:56;;;;;;;10.82;4.30;;;16.30;67.20;;;;;;2301138;58;21088;-81
2022/06/13 04:34:33;;;;;;;16.42;5.43;;;16.30;67.90;;;;;;2300442;58;21081;-82
2022/06/13 04:37:04;;;;;;;11.88;4.18;;;16.20;68.20;;;;;;2300853;58;21061;-82
2022/06/13 04:39:35;;;;;;;11.25;4.53;;;16.30;68.30;;;;;;2301156;58;21065;-82
2022/06/13 04:42:05;;;;;;;12.48;4.37;;;16.30;68.50;;;;;;2537372;54;21121;-84
2022/06/13 04:44:35;;;;;;;15.27;4.62;;;16.30;68.70;;;;;;2537935;54;21188;-84
2022/06/13 04:47:04;;;;;;;11.35;4.62;;;16.30;68.80;;;;;;2536955;54;21641;-83
2022/06/13 04:49:36;;;;;;;9.50;4.15;;;16.40;68.90;;;;;;2301375;58;21105;-82
2022/06/13 04:52:08;;;;;;;10.18;3.92;;;16.40;68.70;;;;;;2301411;58;21605;-83
2022/06/13 04:54:39;;;;;;;13.70;4.03;;;16.40;68.30;;;;;;2301840;58;21200;-81
2022/06/13 04:57:10;;;;;;;10.93;3.42;;;16.50;67.90;;;;;;2301531;58;21234;-84
2022/06/13 04:59:39;;;;;;;9.15;3.67;;;16.50;68.00;;;;;;2301732;58;21093;-83
2022/06/13 05:02:11;;;;;;;9.20;3.75;;;16.50;68.00;;;;;;2538541;54;21086;-83
2022/06/13 05:04:39;;;;;;;7.47;3.80;;;16.50;67.90;;;;;;2301672;58;21042;-81
2022/06/13 05:07:11;;;;;;;10.65;3.80;;;16.50;68.10;;;;;;2301191;58;21113;-83
2022/06/13 05:09:43;;;;;;;9.95;3.70;;;16.50;67.60;;;;;;2538243;54;21113;-83
2022/06/13 05:12:16;;;;;;;10.20;4.70;;;16.50;67.50;;;;;;2301194;58;21557;-84
2022/06/13 05:14:49;;;;;;;11.40;4.18;;;16.50;67.70;;;;;;2301623;58;21332;-83
2022/06/13 05:17:43;;;;;;;10.02;4.57;;;16.50;67.60;;;;;;2299715;58;21914;-78
2022/06/13 05:20:17;;;;;;;12.77;3.90;;;16.50;67.80;;;;;;2538833;54;21089;-81
2022/06/13 05:23:13;;;;;;;9.60;3.80;;;16.50;67.30;;;;;;2538364;54;21085;-83
2022/06/13 05:25:43;;;;;;;11.60;4.60;;;16.50;67.60;;;;;;2299569;58;21548;-84
2022/06/13 05:28:12;;;;;;;12.02;4.22;;;16.50;67.20;;;;;;2300070;58;21790;-82
2022/06/13 05:30:42;;;;;;;14.30;4.57;;;16.50;66.90;;;;;;2537182;54;21566;-82
2022/06/13 05:33:12;;;;;;;15.20;5.05;;;16.50;67.20;;;;;;2300195;58;21148;-83
2022/06/13 05:35:43;;;;;;;12.85;4.95;;;16.50;67.20;;;;;;2300592;58;21396;-85
2022/06/13 05:38:14;;;;;;;12.95;4.70;;;16.50;67.50;;;;;;2300673;58;21101;-83
2022/06/13 05:40:42;;;;;;;16.98;5.50;;;16.50;67.40;;;;;;2300552;58;21165;-84
2022/06/13 05:43:10;;;;;;;12.55;5.10;;;16.50;67.60;;;;;;2300028;58;21097;-83
2022/06/13 05:45:40;;;;;;;18.50;5.10;;;16.50;68.20;;;;;;2300166;58;21686;-84
2022/06/13 05:48:13;;;;;;;11.90;5.28;;;16.50;67.90;;;;;;2536990;54;21617;-82
2022/06/13 05:50:41;;;;;;;14.70;5.10;;;16.50;68.40;;;;;;2300709;58;21152;-84
2022/06/13 05:53:11;;;;;;;13.18;5.75;;;16.50;68.70;;;;;;2537662;54;21057;-82
2022/06/13 05:55:40;;;;;;;14.52;6.10;;;16.50;68.50;;;;;;2300295;58;21133;-83
2022/06/13 05:58:08;;;;;;;18.08;5.60;;;16.50;68.20;;;;;;2537894;54;21077;-82
2022/06/13 06:00:40;;;;;;;14.48;4.95;;;16.50;69.00;;;;;;2300213;58;21184;-83
2022/06/13 06:03:08;;;;;;;19.92;5.25;;;16.40;69.60;;;;;;2298898;58;21711;-83
2022/06/13 06:05:37;;;;;;;14.98;5.25;;;16.50;70.20;;;;;;2298816;58;21697;-84
2022/06/13 06:08:06;;;;;;;14.73;5.70;;;16.50;70.00;;;;;;2300069;58;21137;-82
2022/06/13 06:10:37;;;;;;;15.55;5.62;;;16.50;70.40;;;;;;2300562;58;21144;-84
2022/06/13 06:13:04;;;;;;;17.25;5.37;;;16.50;70.70;;;;;;2300334;58;21077;-82
2022/06/13 06:15:32;;;;;;;12.73;4.93;;;16.50;71.00;;;;;;2299578;58;21133;-83
2022/06/13 06:17:59;;;;;;;14.15;5.12;;;16.60;71.40;;;;;;2537582;54;21073;-82
2022/06/13 06:20:26;;;;;;;18.25;6.12;;;16.60;70.30;;;;;;2299982;58;21057;-82
2022/06/13 06:22:54;;;;;;;15.82;5.80;;;16.60;70.00;;;;;;2300042;58;22220;-81
2022/06/13 06:25:21;;;;;;;14.23;5.03;;;16.70;69.30;;;;;;2299688;58;21065;-80
2022/06/13 06:27:49;;;;;;;13.02;4.57;;;16.70;69.80;;;;;;2299917;58;21125;-82
2022/06/13 06:30:17;;;;;;;9.45;4.75;;;16.70;69.30;;;;;;2299392;58;21105;-80
2022/06/13 06:32:46;;;;;;;11.93;4.80;;;16.60;70.10;;;;;;2536688;54;21065;-82
2022/06/13 06:35:14;;;;;;;14.90;4.87;;;16.70;70.30;;;;;;2536720;54;21121;-84
2022/06/13 06:37:46;;;;;;;15.35;6.18;;;16.70;70.20;;;;;;2536333;54;21161;-84
2022/06/13 06:40:15;;;;;;;19.92;5.47;;;16.70;70.20;;;;;;2299632;58;21077;-83
2022/06/13 06:42:42;;;;;;;12.52;4.40;;;16.70;70.40;;;;;;2299178;58;21125;-83
2022/06/13 06:45:12;;;;;;;7.95;4.18;;;16.70;69.80;;;;;;2299088;58;21081;-83
2022/06/13 06:50:20;;;;;;;15.27;4.10;;;16.80;67.50;;;;;;2538126;54;22127;-78
2022/06/13 06:52:48;;;;;;;12.50;3.83;;;16.90;67.40;;;;;;2291950;58;21063;-78
2022/06/13 07:00:51;;;;;;;8.45;3.47;;;16.90;66.50;;;;;;2291367;58;21576;-78
2022/06/13 07:03:19;;;;;;;9.57;3.37;;;16.90;66.70;;;;;;2291706;58;21197;-78
2022/06/13 07:05:47;;;;;;;11.95;3.65;;;16.90;67.30;;;;;;2291009;58;21146;-78
2022/06/13 07:08:14;;;;;;;10.75;3.97;;;16.90;66.30;;;;;;2291764;58;21082;-78
2022/06/13 07:10:45;;;;;;;11.93;3.15;;;17.00;66.20;;;;;;2292387;58;21071;-78
2022/06/13 07:13:13;;;;;;;12.27;4.25;;;17.10;66.10;;;;;;2291656;58;21115;-78
2022/06/13 07:15:40;;;;;;;7.45;2.75;;;17.10;65.60;;;;;;2291858;58;21066;-78
2022/06/13 07:18:09;;;;;;;7.82;3.08;;;17.20;65.00;;;;;;2291067;58;21103;-78
2022/06/13 07:20:38;;;;;;;9.65;3.17;;;17.30;64.70;;;;;;2527845;54;21122;-79
2022/06/13 07:23:06;;;;;;;11.12;3.58;;;17.30;65.00;;;;;;2291955;58;21047;-78
2022/06/13 07:25:34;;;;;;;8.57;2.72;;;17.40;65.10;;;;;;2292112;58;21066;-78
2022/06/13 07:28:01;;;;;;;10.45;3.20;;;17.50;65.20;;;;;;2292162;58;21106;-78
2022/06/13 07:30:31;;;;;;;7.87;3.12;;;17.70;65.00;;;;;;2292619;58;21119;-78
2022/06/13 07:32:59;;;;;;;13.82;3.45;;;17.80;63.10;;;;;;2292202;58;21134;-79
2022/06/13 07:35:28;;;;;;;8.32;2.90;;;17.80;62.90;;;;;;2292522;58;21122;-78
2022/06/13 07:40:42;;;;;;;7.57;2.90;;;17.90;61.90;;;;;;2291857;58;21030;-77
2022/06/13 07:43:18;;;;;;;6.82;2.62;;;18.00;61.40;;;;;;2291752;58;21126;-78
2022/06/13 07:45:46;;;;;;;10.65;2.85;;;17.90;60.70;;;;;;2291129;58;21134;-77
2022/06/13 07:48:13;;;;;;;6.53;2.15;;;17.90;61.40;;;;;;2291635;58;21166;-77
2022/06/13 07:50:41;;;;;;;6.30;2.25;;;17.80;61.70;;;;;;2526550;55;21114;-78
2022/06/13 07:53:09;;;;;;;8.15;2.20;;;17.80;61.00;;;;;;2291996;58;21134;-77
2022/06/13 07:55:37;;;;;;;6.03;1.73;;;17.80;60.30;;;;;;2525650;55;21059;-78
2022/06/13 07:58:05;;;;;;;4.15;1.70;;;17.80;59.70;;;;;;2526729;54;21099;-78
2022/06/13 08:00:35;;;;;;;11.00;1.70;;;17.70;60.10;;;;;;2290884;58;21087;-77
2022/06/13 08:03:05;;;;;;;5.75;2.12;;;17.50;60.10;;;;;;2290075;58;21141;-78
2022/06/13 08:05:33;;;;;;;6.25;1.73;;;17.40;60.90;;;;;;2289610;58;21082;-78
2022/06/13 08:08:01;;;;;;;7.53;1.50;;;17.30;62.40;;;;;;2289674;58;21063;-77
2022/06/13 08:10:29;;;;;;;3.85;1.48;;;17.30;63.00;;;;;;2290160;58;21589;-77
2022/06/13 08:12:57;;;;;;;3.10;1.55;;;17.20;63.50;;;;;;2289237;58;21170;-77
2022/06/13 08:15:25;;;;;;;2.08;1.05;;;17.20;63.50;;;;;;2289896;58;21075;-77
2022/06/13 08:17:52;;;;;;;4.53;1.55;;;17.20;63.20;;;;;;2289971;58;21110;-78
2022/06/13 08:22:58;;;;;;;4.30;1.60;;;17.20;63.70;;;;;;2602815;52;22520;-77
2022/06/13 08:25:28;;;;;;;3.97;1.87;;;17.20;64.80;;;;;;2344458;57;21135;-76
2022/06/13 08:27:56;;;;;;;3.10;1.20;;;17.20;65.40;;;;;;2345785;56;21037;-78
2022/06/13 08:30:24;;;;;;;3.70;1.40;;;17.20;65.50;;;;;;2626437;52;21035;-78
2022/06/13 08:32:52;;;;;;;2.28;1.50;;;17.10;65.60;;;;;;2373217;56;21019;-78
2022/06/13 08:35:19;;;;;;;5.22;1.83;;;17.10;65.40;;;;;;2372387;56;21055;-78
2022/06/13 08:37:47;;;;;;;3.03;1.23;;;17.10;65.60;;;;;;2374030;56;21083;-80
2022/06/13 08:40:14;;;;;;;5.78;2.05;;;17.00;65.00;;;;;;2373607;56;21094;-78
2022/06/13 08:42:51;;;;;;;5.65;1.70;;;17.00;65.00;;;;;;2374607;56;21494;-77
2022/06/13 08:45:25;;;;;;;2.65;1.20;;;17.00;65.10;;;;;;2374151;56;21039;-78
2022/06/13 08:48:00;;;;;;;3.65;1.60;;;17.00;65.50;;;;;;2374492;56;21617;-78
2022/06/13 08:50:37;;;;;;;2.85;1.50;;;17.00;66.30;;;;;;2374670;56;21106;-78
2022/06/13 08:53:10;;;;;;;1.77;1.17;;;17.10;65.30;;;;;;2374202;56;21182;-77
2022/06/13 08:55:43;;;;;;;2.62;1.17;;;17.10;64.70;;;;;;2373976;56;21122;-78
2022/06/13 08:58:22;;;;;;;1.65;1.30;;;17.10;64.50;;;;;;2374518;56;21530;-78
2022/06/13 09:00:54;;;;;;;3.22;1.25;;;17.00;64.80;;;;;;2372751;56;21095;-77
2022/06/13 09:03:28;;;;;;;1.77;1.08;;;17.00;65.10;;;;;;2373034;56;21122;-77
2022/06/13 09:05:59;;;;;;;2.17;1.15;;;17.00;65.60;;;;;;2374155;56;22314;-78
2022/06/13 09:08:36;;;;;;;3.37;1.02;;;16.90;64.70;;;;;;2627069;52;21098;-77
2022/06/13 09:11:10;;;;;;;3.45;1.20;;;17.00;64.50;;;;;;2373375;56;21122;-77
2022/06/13 09:13:44;;;;;;;1.73;1.10;;;16.90;64.60;;;;;;2373806;56;21050;-77
2022/06/13 09:16:16;;;;;;;3.30;1.00;;;16.90;63.80;;;;;;2373277;56;21054;-77
2022/06/13 09:18:49;;;;;;;2.45;1.00;;;16.80;63.50;;;;;;2373208;56;21063;-77
2022/06/13 09:21:24;;;;;;;1.52;0.95;;;16.70;63.00;;;;;;2373701;56;21521;-78
2022/06/13 09:24:10;;;;;;;2.47;1.10;;;16.70;63.50;;;;;;2372728;56;21553;-77
2022/06/13 09:26:46;;;;;;;3.65;0.90;;;16.60;63.40;;;;;;2373161;56;21881;-77
2022/06/13 09:29:20;;;;;;;2.25;1.00;;;16.60;63.70;;;;;;2373201;56;21537;-76
2022/06/13 09:31:53;;;;;;;2.90;1.25;;;16.60;63.70;;;;;;2372203;56;21325;-77
2022/06/13 09:34:26;;;;;;;1.40;1.10;;;16.50;64.00;;;;;;2371823;56;21070;-77
2022/06/13 09:37:04;;;;;;;7.30;1.60;;;16.50;64.50;;;;;;2372173;56;21537;-77
2022/06/13 09:39:31;;;;;;;1.33;1.02;;;16.50;65.50;;;;;;2372402;56;21106;-77
2022/06/13 09:42:23;;;;;;;1.75;0.70;;;16.50;65.70;;;;;;2423493;54;21604;-74
2022/06/13 09:45:08;;;;;;;4.25;1.27;;;16.50;65.30;;;;;;2301980;58;22134;-79
2022/06/13 09:47:45;;;;;;;2.95;1.42;;;16.50;65.00;;;;;;2301589;58;21190;-77
2022/06/13 09:50:24;;;;;;;2.95;0.98;;;16.60;65.40;;;;;;2318468;54;21078;-79
2022/06/13 09:52:57;;;;;;;1.27;0.80;;;16.60;65.60;;;;;;2301866;58;21090;-76
2022/06/13 09:55:26;;;;;;;;;;;16.70;64.80;;;;;;2340413;54;21635;-79
2022/06/13 09:58:06;;;;;;;2.15;0.90;;;16.80;64.60;;;;;;2300706;55;20123;-79
2022/06/13 10:00:43;;;;;;;1.65;1.00;;;16.80;65.70;;;;;;2302422;54;21138;-80
2022/06/13 10:03:21;;;;;;;1.90;0.95;;;16.80;64.80;;;;;;2300616;58;21110;-76
2022/06/13 10:06:00;;;;;;;1.27;0.80;;;16.80;65.10;;;;;;2333142;54;21075;-78
2022/06/13 10:08:44;;;;;;;1.50;0.80;;;16.80;64.00;;;;;;2305514;54;21568;-77
2022/06/13 10:11:24;;;;;;;1.35;0.82;;;16.80;64.70;;;;;;2300536;58;21078;-77
2022/06/13 10:14:06;;;;;;;1.65;0.90;;;16.80;63.80;;;;;;2304636;54;21046;-76
2022/06/13 10:16:47;;;;;;;3.28;1.02;;;16.90;64.60;;;;;;2299937;58;21054;-80
2022/06/13 10:19:24;;;;;;;2.37;0.95;;;16.90;64.00;;;;;;2299097;58;21070;-75
2022/06/13 10:21:58;;;;;;;0.98;0.70;;;17.00;62.30;;;;;;2300881;58;21137;-77
2022/06/13 10:24:35;;;;;;;1.10;0.60;;;17.00;61.00;;;;;;2301408;57;21145;-77
2022/06/13 10:27:11;;;;;;;1.55;0.70;;;17.10;60.90;;;;;;2299984;58;21039;-78
2022/06/13 10:29:51;;;;;;;1.23;0.60;;;17.10;60.50;;;;;;2300598;58;21050;-79
2022/06/13 10:32:33;;;;;;;2.10;0.60;;;17.20;59.20;;;;;;2300675;58;21537;-78
2022/06/13 10:35:15;;;;;;;1.40;0.70;;;17.30;59.30;;;;;;2322862;54;21150;-77
2022/06/13 10:37:52;;;;;;;0.90;0.70;;;17.40;60.00;;;;;;2323022;54;21121;-79
2022/06/13 10:40:20;;;;;;;1.45;0.62;;;17.50;60.10;;;;;;2300434;58;21161;-76
2022/06/13 10:42:48;;;;;;;0.60;0.45;;;17.60;60.40;;;;;;2300132;58;21083;-79
2022/06/13 10:45:17;;;;;;;2.17;1.02;;;17.80;60.60;;;;;;2300303;58;21074;-76
2022/06/13 10:47:49;;;;;;;1.85;0.80;;;17.80;59.00;;;;;;2351132;54;21073;-79
2022/06/13 10:50:22;;;;;;;1.35;0.75;;;17.90;59.90;;;;;;2300852;58;21157;-77
2022/06/13 10:52:59;;;;;;;1.15;0.90;;;18.10;59.90;;;;;;2300591;58;21086;-79
2022/06/13 10:55:30;;;;;;;1.00;0.70;;;18.20;59.30;;;;;;2299274;58;21070;-77
2022/06/13 10:58:04;;;;;;;1.75;0.95;;;18.40;58.90;;;;;;2300720;58;21123;-79
2022/06/13 11:00:32;;;;;;;1.67;0.85;;;18.50;57.60;;;;;;2300651;58;21074;-78
2022/06/13 11:03:14;;;;;;;1.60;0.62;;;18.60;57.30;;;;;;2326316;54;21137;-76
2022/06/13 11:05:53;;;;;;;1.60;0.90;;;18.60;56.80;;;;;;2299299;58;21075;-77
2022/06/13 11:08:21;;;;;;;1.30;0.68;;;18.70;57.40;;;;;;2338235;54;21099;-77
2022/06/13 11:10:56;;;;;;;2.20;0.73;;;18.80;57.40;;;;;;2300060;58;21070;-76
2022/06/13 11:13:28;;;;;;;2.47;0.60;;;18.90;57.30;;;;;;2326338;54;21137;-77
2022/06/13 11:24:18;;;;;;;1.77;0.70;;;19.30;53.90;;;;;;2346980;57;21066;-76
2022/06/13 11:29:35;;;;;;;3.33;0.73;;;19.50;53.80;;;;;;2345690;57;21477;-75
2022/06/13 11:32:12;;;;;;;2.65;0.75;;;19.60;54.00;;;;;;2453179;53;21053;-74
2022/06/13 11:34:41;;;;;;;2.12;0.77;;;19.70;52.30;;;;;;2346509;57;21034;-77
2022/06/13 11:37:19;;;;;;;3.58;1.17;;;19.80;51.50;;;;;;2346671;53;21045;-76
2022/06/13 11:39:49;;;;;;;2.53;0.75;;;19.90;51.70;;;;;;2439045;53;21041;-77
2022/06/13 11:42:22;;;;;;;12.50;1.50;;;20.10;51.30;;;;;;2420118;52;21077;-77
2022/06/13 11:44:51;;;;;;;;;;;20.20;50.70;;;;;;2351181;57;21108;-77
2022/06/13 11:47:21;;;;;;;1.60;0.50;;;20.20;51.00;;;;;;2370861;53;20090;-78
2022/06/13 11:49:55;;;;;;;4.22;0.68;;;20.30;51.30;;;;;;2347111;57;21085;-79
2022/06/13 11:55:22;;;;;;;1.90;0.85;;;20.50;50.20;;;;;;2346728;53;20540;-75
2022/06/13 11:57:54;;;;;;;2.70;0.70;;;20.60;49.60;;;;;;2347418;57;21045;-76
2022/06/13 12:00:38;;;;;;;2.47;0.68;;;20.70;48.70;;;;;;2385347;53;21057;-77
2022/06/13 12:03:18;;;;;;;2.40;0.70;;;20.70;48.70;;;;;;2382489;53;21115;-75
2022/06/13 12:05:50;;;;;;;4.72;0.82;;;20.80;49.40;;;;;;2347102;57;21129;-77
2022/06/13 12:08:29;;;;;;;5.22;1.08;;;20.90;50.00;;;;;;2347394;57;21599;-78
2022/06/13 12:11:01;;;;;;;5.10;0.90;;;21.10;50.10;;;;;;2438752;53;21041;-77
2022/06/13 12:13:31;;;;;;;4.40;0.95;;;21.10;50.10;;;;;;2347874;57;21101;-77
2022/06/13 12:16:07;;;;;;;1.50;0.70;;;21.10;49.20;;;;;;2364420;53;21097;-77
2022/06/13 12:18:45;;;;;;;3.15;1.00;;;21.00;49.70;;;;;;2435365;53;21061;-77
2022/06/13 12:21:22;;;;;;;4.90;1.15;;;20.90;50.20;;;;;;2382089;53;21120;-76
2022/06/13 12:23:57;;;;;;;3.85;0.75;;;20.70;49.60;;;;;;2347704;57;21100;-77
2022/06/13 12:26:29;;;;;;;3.72;1.00;;;20.50;49.50;;;;;;2475386;53;21049;-76
2022/06/13 12:29:06;;;;;;;5.90;1.70;;;20.30;50.30;;;;;;2347068;57;21065;-75
2022/06/13 12:31:37;;;;;;;4.57;1.10;;;20.30;50.80;;;;;;2346443;57;21134;-75
2022/06/13 12:34:21;;;;;;;4.57;1.00;;;20.20;50.50;;;;;;2400955;53;21117;-76
2022/06/13 12:37:02;;;;;;;2.67;0.85;;;20.20;50.70;;;;;;2410009;53;21544;-75
2022/06/13 12:39:51;;;;;;;2.53;1.05;;;20.10;50.80;;;;;;2345987;57;21438;-76
2022/06/13 12:42:39;;;;;;;5.00;0.80;;;20.00;50.80;;;;;;2345253;57;21563;-77
2022/06/13 12:48:24;;;;;;;4.20;0.90;;;19.90;51.90;;;;;;2356998;56;22335;-75
2022/06/13 12:51:06;;;;;;;4.32;0.93;;;19.90;52.20;;;;;;2421820;52;21042;-74
2022/06/13 12:54:06;;;;;;;5.85;1.37;;;19.80;51.80;;;;;;2373202;56;21583;-76
2022/06/13 12:56:41;;;;;;;5.72;1.00;;;19.80;52.30;;;;;;2373238;56;21142;-78
2022/06/13 12:59:35;;;;;;;2.22;0.80;;;19.70;52.60;;;;;;2373759;56;21047;-74
2022/06/13 13:02:24;;;;;;;1.95;0.68;;;19.70;52.00;;;;;;2374485;56;21035;-75
2022/06/13 13:05:04;;;;;;;2.55;0.90;;;19.70;51.20;;;;;;2436428;52;21059;-75
2022/06/13 13:07:43;;;;;;;1.62;0.65;;;19.70;51.60;;;;;;2374818;56;21098;-74
2022/06/13 13:10:30;;;;;;;2.05;0.70;;;19.70;51.80;;;;;;2374932;56;21046;-74
2022/06/13 13:16:30;;;;;;;11.12;1.45;;;19.70;51.60;;;;;;2451101;53;22557;-75
2022/06/13 13:19:20;;;;;;;3.08;0.80;;;19.60;52.10;;;;;;2432070;52;21190;-76
2022/06/13 13:21:54;;;;;;;1.55;0.90;;;19.70;52.50;;;;;;2374999;56;21102;-75
2022/06/13 13:24:37;;;;;;;2.20;1.02;;;19.80;52.30;;;;;;2412605;52;21102;-74
2022/06/13 13:27:07;;;;;;;3.90;1.12;;;19.80;52.30;;;;;;2374931;56;21114;-75
2022/06/13 13:29:46;;;;;;;4.10;1.17;;;19.80;52.30;;;;;;2374499;56;21035;-77
2022/06/13 13:32:43;;;;;;;2.10;0.70;;;19.80;51.40;;;;;;2374228;56;21019;-74
2022/06/13 13:35:22;;;;;;;5.00;1.15;;;19.80;51.30;;;;;;2374456;56;21306;-75
2022/06/13 13:37:53;;;;;;;8.32;1.00;;;19.80;51.30;;;;;;2371314;56;21075;-76
2022/06/13 13:40:29;;;;;;;7.32;0.93;;;19.80;51.80;;;;;;2371833;56;21035;-79
2022/06/13 13:43:05;;;;;;;3.00;0.90;;;19.80;51.20;;;;;;2437401;52;21037;-78
2022/06/13 13:45:43;;;;;;;3.33;0.90;;;19.80;50.50;;;;;;2371508;56;21051;-77
2022/06/13 13:48:25;;;;;;;2.37;0.82;;;19.90;50.00;;;;;;2437816;52;21161;-74
2022/06/13 13:50:58;;;;;;;4.75;1.20;;;20.00;49.90;;;;;;2411610;52;21095;-75
2022/06/13 13:53:31;;;;;;;4.00;1.00;;;20.00;50.10;;;;;;2419522;52;21142;-75
2022/06/13 13:56:07;;;;;;;2.58;1.40;;;20.00;50.60;;;;;;2371596;56;21035;-75
2022/06/13 13:58:36;;;;;;;2.87;0.95;;;20.10;51.00;;;;;;2380658;52;21573;-74